메인 페이지
METAR-TAF:

METAR-TAF

공항 :

지부티, 지부티

위도: 11-33N, 경도: 043-10E, 고도: 49m

현재 날씨관측

예보는 11 시간 51분 전, 07:00시(UTC)에 발표되었습니다.
19kt
온도 31°C
습도 66%
기압 1014 hPa
시정 10km 이상
고도 2300ft 상공 구름 보통

METAR: HDAM 040700Z 09019KT 9999 SCT023 31/24 Q1014

시각: 21:51 (18:51 UTC)

예보

예보는 25 시간 51분 전, 17:00시(UTC)에 발표되었습니다.
예보 대상 시간: 03일 18시부터 04일 18시까지 (UTC)
여러 방향의 바람 5kt
시정 10km 이상
고도 2000ft 상공 구름 조금
전환 중
04일 00시부터 04일 06시까지 (UTC)
kt
고도 2000ft 상공 구름 보통
전환 중
04일 06시부터 04일 12시까지 (UTC)
12kt
고도 2300ft 상공 구름 보통
고도 3000ft 상공 구름 보통

TAF: HDAM 031700Z 0318/0418 VRB05KT 9999 FEW020 BECMG 0400/0406 00000KT SCT020 BECMG 0406/0412 08012KT SCT023 SCT030

4,000개 이상의 공항 관측 자료 및 예보 (METAR 및 TAF 보고).

지도상에서 검색 가능한 기상관측소가 노란 점과 빨간 점으로 표시되어 있습니다.

기상관측소 명을 보려면 표시 위로 마우스를 이동하세요.

날씨 관측과 예보를 보려면 클릭하세요.

지도 변경 : 확대하려면 엑스 표시가 있는 녹색 버튼, 축소하려면 빼기 표시가 있는 녹색 버튼, 다음 페이지의 지도를 보려면 녹색 화살표를 클릭하세요.


METAR-TAF: